Neah Bay, WA (Traffic Separation Lighted Buoy) (46087)

Conditions for Tuesday

Daily
Weekly
Monthly
Marine Data Graph

Marine & Boating Location Search

Enter a coastal zip code for marine weather.

General Information

Location: 48.494 North -124.728 West
Buoy Type: 3-meter discus buoy
Buoy Hull: 3D16
Payload: AMPS payload
Owned by: NDBC
Windspeed: Measured by obtained from anemometer
Sea Surface: Measured by Intake

Weather and Wave Data

Time Temp Humidity Wind Dominant Wave Wind Wave Wave Swell Pressure
  Air
(°F)
Water
(°F)
  Dir Speed
(kts)
Speed
(mph)
Period
(sec)
Height
(ft)
Range
(ft)
Period
(sec)
Height
(ft)
Range
(ft)
Period
(sec)
Height
(ft)
Range
(ft)
Atmo.
(in)
Tend.
(in)
20:20 47 49 82 South 11.7 13.4 - - - - - - 30.17 -
20:50 47 49 83 South 11.7 13.4 8 5.25 exactly 5.2 5 1.64 0.82 - 2.46 8 4.92 4.10 - 5.74 30.16 -0.09
21:20 47 49 84 SSW 9.7 11.2 - - - - - - 30.16 -
21:50 48 49 72 SSW 15.6 17.9 15 5.25 exactly 5.2 5 3.28 2.46 - 4.10 15 3.28 2.46 - 4.10 30.12 -0.11
22:20 48 49 72 SW 15.6 17.9 - - - - - - 30.10 -
22:50 48 49 72 SSW 15.6 17.9 15 5.25 exactly 5.2 6 3.28 2.46 - 4.10 15 3.28 2.46 - 4.10 30.08 -0.10
23:20 48 49 74 SW 15.6 17.9 - - - - - - 30.05 -
23:50 47 49 82 SSW 17.5 20.1 14 5.58 exactly 5.6 6 3.28 2.46 - 4.10 14 4.92 4.10 - 5.74 30.03 -0.14
00:20 47 49 82 SSW 17.5 20.1 - - - - - - 30.00 -
00:50 47 49 82 SSW 17.5 20.1 14 5.58 exactly 5.6 4 3.28 2.46 - 4.10 14 4.92 4.10 - 5.74 29.97 -0.15
01:20 47 49 85 SSW 19.4 22.4 - - - - - - 29.95 -
01:50 48 49 81 SSW 17.5 20.1 15 5.91 exactly 5.9 5 4.92 4.10 - 5.74 15 3.28 2.46 - 4.10 29.93 -0.15
02:20 48 49 77 SW 19.4 22.4 - - - - - - 29.91 -
02:50 48 49 77 SW 17.5 20.1 14 6.56 exactly 6.6 5 4.92 4.10 - 5.74 14 4.92 4.10 - 5.74 29.88 -0.14
03:20 47 49 79 SW 17.5 20.1 - - - - - - 29.87 -
03:50 46 49 87 SW 19.4 22.4 15 7.87 exactly 7.9 5 4.92 4.10 - 5.74 15 6.56 5.74 - 7.38 29.85 -0.12
04:20 47 49 82 SSW 17.5 20.1 - - - - - - 29.81 -
04:50 47 49 83 SSW 19.4 22.4 15 7.55 exactly 7.5 5 4.92 4.10 - 5.74 15 6.56 5.74 - 7.38 29.79 -0.14
05:20 47 49 86 SSW 19.4 22.4 - - - - - - 29.76 -
05:50 46 49 89 South 17.5 20.1 14 7.87 exactly 7.9 6 4.92 4.10 - 5.74 14 6.56 5.74 - 7.38 29.72 -0.16
06:20 46 49 88 South 17.5 20.1 - - - - - - 29.71 -
06:50 46 49 87 South 17.5 20.1 14 7.55 exactly 7.5 7 4.92 4.10 - 5.74 14 6.56 5.74 - 7.38 29.69 -0.16
07:20 46 49 87 South 19.4 22.4 - - - - - - 29.67 -
07:50 46 49 88 South 17.5 20.1 16 8.53 exactly 8.5 6 4.92 4.10 - 5.74 16 6.56 5.74 - 7.38 29.65 -0.14
08:20 46 49 88 South 15.6 17.9 - - - - - - 29.63 -
08:50 47 49 83 SSE 17.5 20.1 14 7.22 exactly 7.2 6 4.92 4.10 - 5.74 14 4.92 4.10 - 5.74 29.61 -0.12
09:20 47 49 82 SSE 19.4 22.4 - - - - - - 29.60 -
09:50 46 49 86 ESE 17.5 20.1 16 7.87 exactly 7.9 6 4.92 4.10 - 5.74 16 6.56 5.74 - 7.38 29.59 -0.10
10:20 45 49 90 ESE 19.4 22.4 - - - - - - 29.58 -
10:50 45 49 92 ESE 11.7 13.4 16 9.51 exactly 9.5 6 3.28 2.46 - 4.10 16 8.20 7.38 - 9.02 29.58 -0.06
11:20 45 49 90 East 13.6 15.7 - - - - - - 29.57 -
11:50 46 49 89 East 9.7 11.2 15 8.86 exactly 8.9 5 3.28 2.46 - 4.10 15 8.20 7.38 - 9.02 29.55 -0.05
12:20 47 49 84 NE 5.8 6.7 - - - - - - 29.54 -
12:50 46 49 89 ENE 9.7 11.2 15 8.86 exactly 8.9 4 1.64 0.82 - 2.46 15 8.20 7.38 - 9.02 29.55 -0.04
13:20 46 49 88 East 9.7 11.2 - - - - - - 29.54 -
13:50 46 49 88 East 7.8 8.9 15 8.53 exactly 8.5 4 1.64 0.82 - 2.46 15 8.20 7.38 - 9.02 29.54 -0.05
14:20 46 49 88 East 5.8 6.7 - - - - - - 29.53 -
14:50 46 49 85 ENE 3.9 4.5 14 8.53 exactly 8.5 4 1.64 0.82 - 2.46 14 8.20 7.38 - 9.02 29.53 -0.03
15:20 45 49 88 SE 1.9 2.2 - - - - - - 29.52 -
15:50 46 49 82 WSW 1.9 2.2 15 7.22 exactly 7.2 3 1.64 0.82 - 2.46 15 6.56 5.74 - 7.38 29.52 -0.02
16:20 46 49 83 West 9.7 11.2 - - - - - - 29.53 -
16:50 47 49 76 NW 13.6 15.7 14 7.55 exactly 7.5 6 1.64 0.82 - 2.46 14 6.56 5.74 - 7.38 29.52 -0.01
17:20 47 49 75 NW 15.6 17.9 - - - - - - 29.52 -
17:50 47 49 73 NW 13.6 15.7 15 8.20 exactly 8.2 5 1.64 0.82 - 2.46 15 8.20 7.38 - 9.02 29.53 -
18:20 47 49 71 NW 13.6 15.7 - - - - - -
-
-
18:50 47 49 72 NW 13.6 15.7 14 8.86 exactly 8.9 5 3.28 2.46 - 4.10 14 8.20 7.38 - 9.02 29.54 +0.01
19:20 46 49 80 NW 13.6 15.7 - - - - - - 29.54 -
19:50 47 49 69 WNW 13.6 15.7 14 10.17 exactly 10.2 6 3.28 2.46 - 4.10 14 9.84 9.02 - 10.66 29.54 +0.02
20:20 47 49 69 WNW 13.6 15.7 - - - - - - 29.55 -
20:50 47 49 72 NW 9.7 11.2 14 10.50 exactly 10.5 4 1.64 0.82 - 2.46 14 9.84 9.02 - 10.66 29.56 +0.03
21:20 46 49 76 NNW 5.8 6.7 - - - - - - 29.56 -
21:50 46 49 74 NW 3.9 4.5 13 11.15 exactly 11.2 4 1.64 0.82 - 2.46 13 11.48 10.66 - 12.30 29.56 +0.02
22:20 46 49 77 North 3.9 4.5 - - - - - - 29.56 -
22:50 45 49 82 NNE 5.8 6.7 11 10.83 exactly 10.8 4 1.64 0.82 - 2.46 11 11.48 10.66 - 12.30 29.57 +0.02
23:20 44 48 83 NNE 5.8 6.7 - - - - - - 29.57 -
23:50 45 48 84 NNE 5.8 6.7 11 10.83 exactly 10.8 4 1.64 0.82 - 2.46 11 11.48 10.66 - 12.30 29.58 +0.03
00:50 44 48 79 NE 7.8 8.9 11 11.15 exactly 11.2 4 1.64 0.82 - 2.46 11 11.48 10.66 - 12.30 29.60 +0.04
01:20 44 48 80 ENE 7.8 8.9 - - - - - - 29.60 -
01:50 44 48 78 ENE 7.8 8.9 11 10.17 exactly 10.2 4 1.64 0.82 - 2.46 11 9.84 9.02 - 10.66 29.61 +0.04
02:20 44 48 79 NNE 5.8 6.7 - - - - - - 29.62 -
02:50 44 48 76 NNE 5.8 6.7 13 10.83 exactly 10.8 4 1.64 0.82 - 2.46 13 11.48 10.66 - 12.30 29.63 +0.05
03:20 44 48 85 North 5.8 6.7 - - - - - - 29.65 -
03:50 44 48 79 North 5.8 6.7 12 10.83 exactly 10.8 4 1.64 0.82 - 2.46 12 11.48 10.66 - 12.30 29.65 +0.06

Detailed Wave Spectra

Time Water Depth Wave Height Spectral Peak Period Average Wave Period Sampling Interval Wave Record
20:00 843 ft 5.35 ft 7.7 sec 7.0 sec 0.6 sec 2400 sec
21:00 843 ft 5.28 ft 7.7 sec 6.7 sec 0.6 sec 2400 sec
22:00 843 ft 5.12 ft 14.8 sec 6.6 sec 0.6 sec 2400 sec
23:00 843 ft 5.12 ft 14.8 sec 6.3 sec 0.6 sec 2400 sec
00:00 843 ft 5.71 ft 13.8 sec 6.0 sec 0.6 sec 2400 sec
01:00 843 ft 5.54 ft 13.8 sec 6.0 sec 0.6 sec 2400 sec
02:00 843 ft 5.94 ft 14.8 sec 5.8 sec 0.6 sec 2400 sec
03:00 843 ft 6.59 ft 13.8 sec 6.4 sec 0.6 sec 2400 sec
04:00 843 ft 7.94 ft 14.8 sec 6.9 sec 0.6 sec 2400 sec
05:00 843 ft 7.51 ft 14.8 sec 7.1 sec 0.6 sec 2400 sec
06:00 843 ft 8.01 ft 13.8 sec 7.3 sec 0.6 sec 2400 sec
07:00 843 ft 7.58 ft 13.8 sec 7.4 sec 0.6 sec 2400 sec
08:00 843 ft 8.46 ft 16.0 sec 7.9 sec 0.6 sec 2400 sec
09:00 843 ft 7.35 ft 13.8 sec 6.9 sec 0.6 sec 2400 sec
10:00 843 ft 7.91 ft 16.0 sec 6.6 sec 0.6 sec 2400 sec
11:00 843 ft 9.45 ft 16.0 sec 7.4 sec 0.6 sec 2400 sec
12:00 843 ft 8.83 ft 14.8 sec 7.3 sec 0.6 sec 2400 sec
13:00 843 ft 8.73 ft 14.8 sec 7.8 sec 0.6 sec 2400 sec
14:00 843 ft 8.37 ft 14.8 sec 8.2 sec 0.6 sec 2400 sec
15:00 843 ft 8.63 ft 13.8 sec 8.5 sec 0.6 sec 2400 sec
16:00 843 ft 7.32 ft 14.8 sec 9.0 sec 0.6 sec 2400 sec
17:00 843 ft 7.55 ft 13.8 sec 9.2 sec 0.6 sec 2400 sec
18:00 843 ft 8.20 ft 14.8 sec 9.1 sec 0.6 sec 2400 sec
19:00 843 ft 8.92 ft 13.8 sec 8.8 sec 0.6 sec 2400 sec
20:00 843 ft 10.20 ft 13.8 sec 8.4 sec 0.6 sec 2400 sec
22:00 843 ft 11.12 ft 12.9 sec 8.2 sec 0.6 sec 2400 sec
23:00 843 ft 10.83 ft 11.4 sec 7.9 sec 0.6 sec 2400 sec
01:00 843 ft 11.06 ft 10.8 sec 8.2 sec 0.6 sec 2400 sec
02:00 843 ft 10.20 ft 10.8 sec 8.3 sec 0.6 sec 2400 sec
03:00 843 ft 10.99 ft 12.9 sec 8.7 sec 0.6 sec 2400 sec